Meldrim, Georgia
Current Conditions -  °F | °C
As of 3:53 PM on Friday 28 Nov 2014 (Local Time) from KSAV Reporting Station
Clear Clear  
Wind Chill: 53°   Ceiling: Unl
Heat Index: 53°   Visibility: 10mi
Dew Point: 24°   Wind: 6mph
Humidity: 32%   Direction: 340°NNW
Pressure: 30.32"   Gusts: NA
Location:  32.14°N, 81.38°W
Report Text: KSAV 282053Z 34005KT 10SM CLR 12/M04 A3032 RMK AO2 SLP267 T01171044 56014
Loading
Personal Weather Stations






























Interactive Weather Map New forecast layout! Learn more

10-Day Weather Forecast

Advertisements
Track Severe Weather on mobile